sensor_id;sensor_type;location;lat;lon;timestamp;P1;durP1;ratioP1;P2;durP2;ratioP2
11064;SDS011;5585;52.530;7.320;2022-10-16T00:01:04;3.23;;;1.20;;
11064;SDS011;5585;52.530;7.320;2022-10-16T00:03:31;3.97;;;1.50;;
11064;SDS011;5585;52.530;7.320;2022-10-16T00:05:58;2.20;;;1.33;;
11064;SDS011;5585;52.530;7.320;2022-10-16T00:08:26;2.37;;;1.33;;
11064;SDS011;5585;52.530;7.320;2022-10-16T00:10:57;1.87;;;1.40;;
11064;SDS011;5585;52.530;7.320;2022-10-16T00:13:27;3.70;;;1.50;;
11064;SDS011;5585;52.530;7.320;2022-10-16T00:15:54;2.07;;;1.13;;
11064;SDS011;5585;52.530;7.320;2022-10-16T00:18:21;1.70;;;1.50;;
11064;SDS011;5585;52.530;7.320;2022-10-16T00:20:47;2.37;;;1.03;;
11064;SDS011;5585;52.530;7.320;2022-10-16T00:23:14;3.20;;;1.47;;
11064;SDS011;5585;52.530;7.320;2022-10-16T00:25:41;1.70;;;1.20;;
11064;SDS011;5585;52.530;7.320;2022-10-16T00:28:09;3.20;;;1.50;;
11064;SDS011;5585;52.530;7.320;2022-10-16T00:30:37;2.10;;;1.37;;
11064;SDS011;5585;52.530;7.320;2022-10-16T00:33:04;1.77;;;1.20;;
11064;SDS011;5585;52.530;7.320;2022-10-16T00:35:31;2.13;;;1.13;;
11064;SDS011;5585;52.530;7.320;2022-10-16T00:37:58;1.43;;;1.00;;
11064;SDS011;5585;52.530;7.320;2022-10-16T00:40:24;3.30;;;1.27;;
11064;SDS011;5585;52.530;7.320;2022-10-16T00:42:53;2.67;;;1.23;;
11064;SDS011;5585;52.530;7.320;2022-10-16T00:45:21;3.27;;;1.73;;
11064;SDS011;5585;52.530;7.320;2022-10-16T00:47:47;2.43;;;1.30;;
11064;SDS011;5585;52.530;7.320;2022-10-16T00:50:16;1.57;;;1.07;;
11064;SDS011;5585;52.530;7.320;2022-10-16T00:52:46;3.33;;;1.33;;
11064;SDS011;5585;52.530;7.320;2022-10-16T00:55:13;3.47;;;1.30;;
11064;SDS011;5585;52.530;7.320;2022-10-16T00:57:39;3.13;;;1.27;;
11064;SDS011;5585;52.530;7.320;2022-10-16T01:00:10;1.90;;;1.17;;
11064;SDS011;5585;52.530;7.320;2022-10-16T01:02:39;2.20;;;1.13;;
11064;SDS011;5585;52.530;7.320;2022-10-16T01:05:05;2.43;;;1.17;;
11064;SDS011;5585;52.530;7.320;2022-10-16T01:07:36;2.17;;;1.20;;
11064;SDS011;5585;52.530;7.320;2022-10-16T01:10:07;3.27;;;1.00;;
11064;SDS011;5585;52.530;7.320;2022-10-16T01:12:40;3.80;;;1.13;;
11064;SDS011;5585;52.530;7.320;2022-10-16T01:15:09;3.70;;;1.43;;
11064;SDS011;5585;52.530;7.320;2022-10-16T01:17:38;3.10;;;1.07;;
11064;SDS011;5585;52.530;7.320;2022-10-16T01:20:09;2.53;;;1.03;;
11064;SDS011;5585;52.530;7.320;2022-10-16T01:22:43;1.30;;;1.00;;
11064;SDS011;5585;52.530;7.320;2022-10-16T01:25:12;2.70;;;1.00;;
11064;SDS011;5585;52.530;7.320;2022-10-16T01:27:43;2.40;;;1.30;;
11064;SDS011;5585;52.530;7.320;2022-10-16T01:30:16;2.47;;;1.10;;
11064;SDS011;5585;52.530;7.320;2022-10-16T01:32:45;2.70;;;1.20;;
11064;SDS011;5585;52.530;7.320;2022-10-16T01:35:14;4.07;;;1.20;;
11064;SDS011;5585;52.530;7.320;2022-10-16T01:37:46;3.30;;;1.03;;
11064;SDS011;5585;52.530;7.320;2022-10-16T01:40:15;1.53;;;1.20;;
11064;SDS011;5585;52.530;7.320;2022-10-16T01:42:45;1.80;;;1.10;;
11064;SDS011;5585;52.530;7.320;2022-10-16T01:45:13;3.40;;;1.50;;
11064;SDS011;5585;52.530;7.320;2022-10-16T01:47:43;2.10;;;1.00;;
11064;SDS011;5585;52.530;7.320;2022-10-16T01:50:10;2.17;;;1.10;;
11064;SDS011;5585;52.530;7.320;2022-10-16T01:52:39;4.70;;;1.60;;
11064;SDS011;5585;52.530;7.320;2022-10-16T01:55:08;2.20;;;1.37;;
11064;SDS011;5585;52.530;7.320;2022-10-16T01:57:35;3.10;;;1.40;;
11064;SDS011;5585;52.530;7.320;2022-10-16T02:00:07;2.13;;;1.30;;
11064;SDS011;5585;52.530;7.320;2022-10-16T02:02:35;3.07;;;1.20;;
11064;SDS011;5585;52.530;7.320;2022-10-16T02:05:04;2.53;;;1.30;;
11064;SDS011;5585;52.530;7.320;2022-10-16T02:07:33;3.17;;;1.20;;
11064;SDS011;5585;52.530;7.320;2022-10-16T02:09:59;4.10;;;1.93;;
11064;SDS011;5585;52.530;7.320;2022-10-16T02:12:27;2.23;;;1.20;;
11064;SDS011;5585;52.530;7.320;2022-10-16T02:14:54;2.50;;;1.20;;
11064;SDS011;5585;52.530;7.320;2022-10-16T02:17:22;3.00;;;1.47;;
11064;SDS011;5585;52.530;7.320;2022-10-16T02:19:49;2.23;;;1.47;;
11064;SDS011;5585;52.530;7.320;2022-10-16T02:22:18;2.60;;;1.40;;
11064;SDS011;5585;52.530;7.320;2022-10-16T02:24:47;4.27;;;1.73;;
11064;SDS011;5585;52.530;7.320;2022-10-16T02:27:17;2.33;;;1.63;;
11064;SDS011;5585;52.530;7.320;2022-10-16T02:29:47;2.87;;;1.60;;
11064;SDS011;5585;52.530;7.320;2022-10-16T02:32:16;2.50;;;1.67;;
11064;SDS011;5585;52.530;7.320;2022-10-16T02:34:45;4.17;;;1.90;;
11064;SDS011;5585;52.530;7.320;2022-10-16T02:37:13;2.23;;;1.73;;
11064;SDS011;5585;52.530;7.320;2022-10-16T02:39:39;6.60;;;2.53;;
11064;SDS011;5585;52.530;7.320;2022-10-16T02:42:09;3.20;;;2.13;;
11064;SDS011;5585;52.530;7.320;2022-10-16T02:44:35;5.07;;;2.50;;
11064;SDS011;5585;52.530;7.320;2022-10-16T02:47:02;3.50;;;1.90;;
11064;SDS011;5585;52.530;7.320;2022-10-16T02:49:28;7.17;;;2.33;;
11064;SDS011;5585;52.530;7.320;2022-10-16T02:51:56;3.73;;;2.13;;
11064;SDS011;5585;52.530;7.320;2022-10-16T02:54:23;3.93;;;2.17;;
11064;SDS011;5585;52.530;7.320;2022-10-16T02:56:49;2.93;;;2.30;;
11064;SDS011;5585;52.530;7.320;2022-10-16T02:59:17;4.73;;;2.30;;
11064;SDS011;5585;52.530;7.320;2022-10-16T03:01:43;2.83;;;2.23;;
11064;SDS011;5585;52.530;7.320;2022-10-16T03:04:10;2.70;;;2.30;;
11064;SDS011;5585;52.530;7.320;2022-10-16T03:06:36;3.17;;;2.40;;
11064;SDS011;5585;52.530;7.320;2022-10-16T03:09:04;4.53;;;2.40;;
11064;SDS011;5585;52.530;7.320;2022-10-16T03:11:31;3.80;;;2.47;;
11064;SDS011;5585;52.530;7.320;2022-10-16T03:13:57;3.97;;;2.30;;
11064;SDS011;5585;52.530;7.320;2022-10-16T03:16:24;4.77;;;2.20;;
11064;SDS011;5585;52.530;7.320;2022-10-16T03:18:50;3.93;;;2.50;;
11064;SDS011;5585;52.530;7.320;2022-10-16T03:21:17;4.83;;;2.27;;
11064;SDS011;5585;52.530;7.320;2022-10-16T03:23:43;2.77;;;2.13;;
11064;SDS011;5585;52.530;7.320;2022-10-16T03:26:11;3.53;;;2.57;;
11064;SDS011;5585;52.530;7.320;2022-10-16T03:28:38;4.03;;;2.77;;
11064;SDS011;5585;52.530;7.320;2022-10-16T03:31:04;3.83;;;2.67;;
11064;SDS011;5585;52.530;7.320;2022-10-16T03:33:31;3.13;;;2.37;;
11064;SDS011;5585;52.530;7.320;2022-10-16T03:35:58;2.67;;;2.20;;
11064;SDS011;5585;52.530;7.320;2022-10-16T03:38:24;2.70;;;2.30;;
11064;SDS011;5585;52.530;7.320;2022-10-16T03:40:51;4.13;;;2.77;;
11064;SDS011;5585;52.530;7.320;2022-10-16T03:43:18;3.53;;;2.30;;
11064;SDS011;5585;52.530;7.320;2022-10-16T03:45:45;5.27;;;2.73;;
11064;SDS011;5585;52.530;7.320;2022-10-16T03:48:12;3.87;;;2.80;;
11064;SDS011;5585;52.530;7.320;2022-10-16T03:50:38;3.43;;;2.50;;
11064;SDS011;5585;52.530;7.320;2022-10-16T03:53:05;4.00;;;2.50;;
11064;SDS011;5585;52.530;7.320;2022-10-16T03:55:32;3.40;;;2.30;;
11064;SDS011;5585;52.530;7.320;2022-10-16T03:57:58;2.70;;;2.20;;
11064;SDS011;5585;52.530;7.320;2022-10-16T04:00:26;3.27;;;2.20;;
11064;SDS011;5585;52.530;7.320;2022-10-16T04:02:52;2.23;;;2.03;;
11064;SDS011;5585;52.530;7.320;2022-10-16T04:05:19;4.27;;;2.13;;
11064;SDS011;5585;52.530;7.320;2022-10-16T04:07:46;3.37;;;2.10;;
11064;SDS011;5585;52.530;7.320;2022-10-16T04:10:12;3.77;;;2.50;;
11064;SDS011;5585;52.530;7.320;2022-10-16T04:12:39;3.53;;;2.43;;
11064;SDS011;5585;52.530;7.320;2022-10-16T04:15:06;3.70;;;1.90;;
11064;SDS011;5585;52.530;7.320;2022-10-16T04:17:34;5.00;;;2.20;;
11064;SDS011;5585;52.530;7.320;2022-10-16T04:20:00;3.57;;;2.10;;
11064;SDS011;5585;52.530;7.320;2022-10-16T04:22:27;2.83;;;2.23;;
11064;SDS011;5585;52.530;7.320;2022-10-16T04:24:53;3.17;;;2.10;;
11064;SDS011;5585;52.530;7.320;2022-10-16T04:27:20;3.50;;;2.10;;
11064;SDS011;5585;52.530;7.320;2022-10-16T04:29:47;3.13;;;2.30;;
11064;SDS011;5585;52.530;7.320;2022-10-16T04:32:13;3.00;;;1.93;;
11064;SDS011;5585;52.530;7.320;2022-10-16T04:34:42;3.40;;;2.07;;
11064;SDS011;5585;52.530;7.320;2022-10-16T04:37:08;3.10;;;1.90;;
11064;SDS011;5585;52.530;7.320;2022-10-16T04:39:35;3.30;;;2.23;;
11064;SDS011;5585;52.530;7.320;2022-10-16T04:42:01;3.10;;;2.43;;
11064;SDS011;5585;52.530;7.320;2022-10-16T04:44:28;3.23;;;1.80;;
11064;SDS011;5585;52.530;7.320;2022-10-16T04:46:54;1.80;;;1.60;;
11064;SDS011;5585;52.530;7.320;2022-10-16T04:49:21;6.03;;;2.20;;
11064;SDS011;5585;52.530;7.320;2022-10-16T04:51:49;3.20;;;2.10;;
11064;SDS011;5585;52.530;7.320;2022-10-16T04:54:15;2.87;;;1.70;;
11064;SDS011;5585;52.530;7.320;2022-10-16T04:56:42;2.37;;;1.80;;
11064;SDS011;5585;52.530;7.320;2022-10-16T04:59:12;2.90;;;1.97;;
11064;SDS011;5585;52.530;7.320;2022-10-16T05:01:39;2.53;;;1.77;;
11064;SDS011;5585;52.530;7.320;2022-10-16T05:04:06;2.90;;;1.70;;
11064;SDS011;5585;52.530;7.320;2022-10-16T05:06:35;3.37;;;1.93;;
11064;SDS011;5585;52.530;7.320;2022-10-16T05:09:05;3.67;;;1.70;;
11064;SDS011;5585;52.530;7.320;2022-10-16T05:11:32;1.87;;;1.60;;
11064;SDS011;5585;52.530;7.320;2022-10-16T05:13:58;2.83;;;1.67;;
11064;SDS011;5585;52.530;7.320;2022-10-16T05:16:25;2.63;;;1.60;;
11064;SDS011;5585;52.530;7.320;2022-10-16T05:18:51;2.43;;;1.70;;
11064;SDS011;5585;52.530;7.320;2022-10-16T05:21:18;2.40;;;1.70;;
11064;SDS011;5585;52.530;7.320;2022-10-16T05:23:45;2.33;;;1.70;;
11064;SDS011;5585;52.530;7.320;2022-10-16T05:26:15;2.80;;;1.70;;
11064;SDS011;5585;52.530;7.320;2022-10-16T05:28:42;3.70;;;1.67;;
11064;SDS011;5585;52.530;7.320;2022-10-16T05:31:09;1.40;;;1.30;;
11064;SDS011;5585;52.530;7.320;2022-10-16T05:33:36;1.77;;;1.57;;
11064;SDS011;5585;52.530;7.320;2022-10-16T05:36:03;1.40;;;1.30;;
11064;SDS011;5585;52.530;7.320;2022-10-16T05:38:29;2.70;;;1.80;;
11064;SDS011;5585;52.530;7.320;2022-10-16T05:40:56;2.27;;;1.87;;
11064;SDS011;5585;52.530;7.320;2022-10-16T05:43:24;1.80;;;1.40;;
11064;SDS011;5585;52.530;7.320;2022-10-16T05:45:54;2.80;;;1.70;;
11064;SDS011;5585;52.530;7.320;2022-10-16T05:48:21;2.93;;;1.80;;
11064;SDS011;5585;52.530;7.320;2022-10-16T05:50:48;2.53;;;1.70;;
11064;SDS011;5585;52.530;7.320;2022-10-16T05:53:14;1.50;;;1.27;;
11064;SDS011;5585;52.530;7.320;2022-10-16T05:55:41;2.60;;;1.93;;
11064;SDS011;5585;52.530;7.320;2022-10-16T05:58:08;1.60;;;1.47;;
11064;SDS011;5585;52.530;7.320;2022-10-16T06:00:36;2.73;;;1.80;;
11064;SDS011;5585;52.530;7.320;2022-10-16T06:03:02;2.33;;;1.80;;
11064;SDS011;5585;52.530;7.320;2022-10-16T06:05:29;1.50;;;1.40;;
11064;SDS011;5585;52.530;7.320;2022-10-16T06:07:56;1.67;;;1.57;;
11064;SDS011;5585;52.530;7.320;2022-10-16T06:10:23;1.67;;;1.57;;
11064;SDS011;5585;52.530;7.320;2022-10-16T06:12:49;1.97;;;1.63;;
11064;SDS011;5585;52.530;7.320;2022-10-16T06:15:16;2.00;;;1.70;;
11064;SDS011;5585;52.530;7.320;2022-10-16T06:17:43;2.20;;;1.60;;
11064;SDS011;5585;52.530;7.320;2022-10-16T06:20:10;2.33;;;1.70;;
11064;SDS011;5585;52.530;7.320;2022-10-16T06:22:36;1.87;;;1.60;;
11064;SDS011;5585;52.530;7.320;2022-10-16T06:25:03;2.90;;;1.67;;
11064;SDS011;5585;52.530;7.320;2022-10-16T06:27:30;2.23;;;1.97;;
11064;SDS011;5585;52.530;7.320;2022-10-16T06:29:56;2.37;;;1.60;;
11064;SDS011;5585;52.530;7.320;2022-10-16T06:32:23;2.57;;;1.50;;
11064;SDS011;5585;52.530;7.320;2022-10-16T06:34:52;1.53;;;1.43;;
11064;SDS011;5585;52.530;7.320;2022-10-16T06:37:19;3.07;;;1.70;;
11064;SDS011;5585;52.530;7.320;2022-10-16T06:39:47;1.77;;;1.63;;
11064;SDS011;5585;52.530;7.320;2022-10-16T06:42:13;2.90;;;1.50;;
11064;SDS011;5585;52.530;7.320;2022-10-16T06:44:40;3.87;;;1.53;;
11064;SDS011;5585;52.530;7.320;2022-10-16T06:47:07;2.13;;;1.57;;
11064;SDS011;5585;52.530;7.320;2022-10-16T06:49:33;1.53;;;1.30;;
11064;SDS011;5585;52.530;7.320;2022-10-16T06:52:02;1.43;;;1.27;;
11064;SDS011;5585;52.530;7.320;2022-10-16T06:54:29;1.73;;;1.40;;
11064;SDS011;5585;52.530;7.320;2022-10-16T06:56:55;1.63;;;1.27;;
11064;SDS011;5585;52.530;7.320;2022-10-16T06:59:22;1.90;;;1.40;;
11064;SDS011;5585;52.530;7.320;2022-10-16T07:01:48;2.27;;;1.23;;
11064;SDS011;5585;52.530;7.320;2022-10-16T07:04:15;2.27;;;1.30;;
11064;SDS011;5585;52.530;7.320;2022-10-16T07:06:41;1.80;;;1.37;;
11064;SDS011;5585;52.530;7.320;2022-10-16T07:09:10;3.23;;;1.33;;
11064;SDS011;5585;52.530;7.320;2022-10-16T07:11:37;2.97;;;1.50;;
11064;SDS011;5585;52.530;7.320;2022-10-16T07:14:04;1.90;;;1.30;;
11064;SDS011;5585;52.530;7.320;2022-10-16T07:16:31;3.57;;;1.30;;
11064;SDS011;5585;52.530;7.320;2022-10-16T07:18:58;1.60;;;1.20;;
11064;SDS011;5585;52.530;7.320;2022-10-16T07:21:25;2.40;;;1.20;;
11064;SDS011;5585;52.530;7.320;2022-10-16T07:23:54;1.37;;;1.00;;
11064;SDS011;5585;52.530;7.320;2022-10-16T07:26:22;2.40;;;1.43;;
11064;SDS011;5585;52.530;7.320;2022-10-16T07:28:48;2.83;;;1.97;;
11064;SDS011;5585;52.530;7.320;2022-10-16T07:31:15;1.30;;;1.20;;
11064;SDS011;5585;52.530;7.320;2022-10-16T07:33:43;2.63;;;1.60;;
11064;SDS011;5585;52.530;7.320;2022-10-16T07:36:13;3.10;;;1.50;;
11064;SDS011;5585;52.530;7.320;2022-10-16T07:38:40;1.50;;;1.40;;
11064;SDS011;5585;52.530;7.320;2022-10-16T07:41:08;2.50;;;1.33;;
11064;SDS011;5585;52.530;7.320;2022-10-16T07:43:37;4.60;;;1.60;;
11064;SDS011;5585;52.530;7.320;2022-10-16T07:46:03;2.83;;;1.20;;
11064;SDS011;5585;52.530;7.320;2022-10-16T07:48:32;2.70;;;1.20;;
11064;SDS011;5585;52.530;7.320;2022-10-16T07:50:59;1.73;;;1.13;;
11064;SDS011;5585;52.530;7.320;2022-10-16T07:53:25;3.27;;;1.40;;
11064;SDS011;5585;52.530;7.320;2022-10-16T07:55:52;2.47;;;1.13;;
11064;SDS011;5585;52.530;7.320;2022-10-16T07:58:20;1.33;;;1.20;;
11064;SDS011;5585;52.530;7.320;2022-10-16T08:00:48;3.50;;;1.40;;
11064;SDS011;5585;52.530;7.320;2022-10-16T08:03:14;1.60;;;1.10;;
11064;SDS011;5585;52.530;7.320;2022-10-16T08:05:41;2.30;;;1.30;;
11064;SDS011;5585;52.530;7.320;2022-10-16T08:08:11;1.43;;;1.03;;
11064;SDS011;5585;52.530;7.320;2022-10-16T08:10:37;3.37;;;1.40;;
11064;SDS011;5585;52.530;7.320;2022-10-16T08:13:04;2.20;;;1.20;;
11064;SDS011;5585;52.530;7.320;2022-10-16T08:15:31;2.33;;;0.90;;
11064;SDS011;5585;52.530;7.320;2022-10-16T08:17:59;1.77;;;1.00;;
11064;SDS011;5585;52.530;7.320;2022-10-16T08:20:27;3.37;;;1.17;;
11064;SDS011;5585;52.530;7.320;2022-10-16T08:22:54;2.90;;;1.40;;
11064;SDS011;5585;52.530;7.320;2022-10-16T08:25:20;2.27;;;1.30;;
11064;SDS011;5585;52.530;7.320;2022-10-16T08:27:48;2.43;;;1.17;;
11064;SDS011;5585;52.530;7.320;2022-10-16T08:30:15;4.70;;;1.20;;
11064;SDS011;5585;52.530;7.320;2022-10-16T08:32:42;3.13;;;1.23;;
11064;SDS011;5585;52.530;7.320;2022-10-16T08:35:10;3.27;;;1.17;;
11064;SDS011;5585;52.530;7.320;2022-10-16T08:37:37;2.27;;;1.30;;
11064;SDS011;5585;52.530;7.320;2022-10-16T08:40:03;3.97;;;1.37;;
11064;SDS011;5585;52.530;7.320;2022-10-16T08:42:34;2.27;;;1.07;;
11064;SDS011;5585;52.530;7.320;2022-10-16T08:47:53;4.10;;;1.07;;
11064;SDS011;5585;52.530;7.320;2022-10-16T08:50:27;2.40;;;1.23;;
11064;SDS011;5585;52.530;7.320;2022-10-16T08:52:54;2.03;;;1.03;;
11064;SDS011;5585;52.530;7.320;2022-10-16T08:55:31;3.17;;;0.90;;
11064;SDS011;5585;52.530;7.320;2022-10-16T08:58:00;1.87;;;1.03;;
11064;SDS011;5585;52.530;7.320;2022-10-16T09:00:26;4.13;;;1.10;;
11064;SDS011;5585;52.530;7.320;2022-10-16T09:02:56;2.23;;;1.23;;
11064;SDS011;5585;52.530;7.320;2022-10-16T09:05:41;3.30;;;1.23;;
11064;SDS011;5585;52.530;7.320;2022-10-16T09:08:12;4.30;;;1.30;;
11064;SDS011;5585;52.530;7.320;2022-10-16T09:10:43;3.33;;;1.40;;
11064;SDS011;5585;52.530;7.320;2022-10-16T09:13:17;3.20;;;1.23;;
11064;SDS011;5585;52.530;7.320;2022-10-16T09:15:46;1.10;;;0.77;;
11064;SDS011;5585;52.530;7.320;2022-10-16T09:18:15;2.30;;;1.30;;
11064;SDS011;5585;52.530;7.320;2022-10-16T09:20:48;2.53;;;0.97;;
11064;SDS011;5585;52.530;7.320;2022-10-16T09:23:16;2.90;;;1.00;;
11064;SDS011;5585;52.530;7.320;2022-10-16T09:25:44;1.60;;;0.80;;
11064;SDS011;5585;52.530;7.320;2022-10-16T09:28:12;1.90;;;0.90;;
11064;SDS011;5585;52.530;7.320;2022-10-16T09:30:42;2.27;;;0.70;;
11064;SDS011;5585;52.530;7.320;2022-10-16T09:33:10;2.67;;;1.00;;
11064;SDS011;5585;52.530;7.320;2022-10-16T09:35:37;2.75;;;1.10;;
11064;SDS011;5585;52.530;7.320;2022-10-16T09:38:06;2.13;;;1.00;;
11064;SDS011;5585;52.530;7.320;2022-10-16T09:40:33;2.20;;;0.93;;
11064;SDS011;5585;52.530;7.320;2022-10-16T09:43:07;2.63;;;1.20;;
11064;SDS011;5585;52.530;7.320;2022-10-16T09:45:41;3.22;;;0.88;;
11064;SDS011;5585;52.530;7.320;2022-10-16T09:48:10;1.40;;;0.77;;
11064;SDS011;5585;52.530;7.320;2022-10-16T09:50:40;2.47;;;1.00;;
11064;SDS011;5585;52.530;7.320;2022-10-16T09:53:11;3.33;;;0.98;;
11064;SDS011;5585;52.530;7.320;2022-10-16T09:55:47;1.80;;;0.93;;
11064;SDS011;5585;52.530;7.320;2022-10-16T09:58:14;2.10;;;0.97;;
11064;SDS011;5585;52.530;7.320;2022-10-16T10:00:40;1.38;;;0.50;;
11064;SDS011;5585;52.530;7.320;2022-10-16T10:03:09;1.75;;;0.90;;
11064;SDS011;5585;52.530;7.320;2022-10-16T10:05:37;2.33;;;0.93;;
11064;SDS011;5585;52.530;7.320;2022-10-16T10:08:05;3.35;;;0.90;;
11064;SDS011;5585;52.530;7.320;2022-10-16T10:10:36;2.05;;;1.15;;
11064;SDS011;5585;52.530;7.320;2022-10-16T10:13:14;2.38;;;0.75;;
11064;SDS011;5585;52.530;7.320;2022-10-16T10:15:42;3.38;;;1.15;;
11064;SDS011;5585;52.530;7.320;2022-10-16T10:18:15;3.88;;;1.10;;
11064;SDS011;5585;52.530;7.320;2022-10-16T10:20:43;3.22;;;1.08;;
11064;SDS011;5585;52.530;7.320;2022-10-16T10:23:20;4.10;;;0.93;;
11064;SDS011;5585;52.530;7.320;2022-10-16T10:25:51;4.45;;;1.10;;
11064;SDS011;5585;52.530;7.320;2022-10-16T10:28:21;3.28;;;1.13;;
11064;SDS011;5585;52.530;7.320;2022-10-16T10:30:54;4.43;;;0.95;;
11064;SDS011;5585;52.530;7.320;2022-10-16T10:33:27;3.58;;;0.93;;
11064;SDS011;5585;52.530;7.320;2022-10-16T10:35:56;3.70;;;1.23;;
11064;SDS011;5585;52.530;7.320;2022-10-16T10:38:28;3.95;;;0.90;;
11064;SDS011;5585;52.530;7.320;2022-10-16T10:41:00;3.33;;;0.98;;
11064;SDS011;5585;52.530;7.320;2022-10-16T10:43:39;4.88;;;1.42;;
11064;SDS011;5585;52.530;7.320;2022-10-16T10:46:13;4.38;;;1.30;;
11064;SDS011;5585;52.530;7.320;2022-10-16T10:48:47;3.13;;;1.10;;
11064;SDS011;5585;52.530;7.320;2022-10-16T10:51:20;2.08;;;1.00;;
11064;SDS011;5585;52.530;7.320;2022-10-16T10:53:51;3.92;;;1.20;;
11064;SDS011;5585;52.530;7.320;2022-10-16T10:56:40;4.57;;;1.10;;
11064;SDS011;5585;52.530;7.320;2022-10-16T10:59:09;3.90;;;0.85;;
11064;SDS011;5585;52.530;7.320;2022-10-16T11:01:45;4.18;;;1.00;;
11064;SDS011;5585;52.530;7.320;2022-10-16T11:04:24;3.45;;;1.00;;
11064;SDS011;5585;52.530;7.320;2022-10-16T11:06:54;2.50;;;0.68;;
11064;SDS011;5585;52.530;7.320;2022-10-16T11:09:23;1.98;;;0.70;;
11064;SDS011;5585;52.530;7.320;2022-10-16T11:11:54;3.10;;;0.80;;
11064;SDS011;5585;52.530;7.320;2022-10-16T11:14:22;3.55;;;0.85;;
11064;SDS011;5585;52.530;7.320;2022-10-16T11:16:51;1.73;;;0.90;;
11064;SDS011;5585;52.530;7.320;2022-10-16T11:19:22;3.53;;;1.15;;
11064;SDS011;5585;52.530;7.320;2022-10-16T11:21:51;2.00;;;0.90;;
11064;SDS011;5585;52.530;7.320;2022-10-16T11:24:23;3.70;;;1.05;;
11064;SDS011;5585;52.530;7.320;2022-10-16T11:26:54;2.47;;;1.00;;
11064;SDS011;5585;52.530;7.320;2022-10-16T11:29:22;4.80;;;1.30;;
11064;SDS011;5585;52.530;7.320;2022-10-16T11:31:51;4.95;;;1.33;;
11064;SDS011;5585;52.530;7.320;2022-10-16T11:34:22;4.75;;;1.05;;
11064;SDS011;5585;52.530;7.320;2022-10-16T11:36:51;3.50;;;1.25;;
11064;SDS011;5585;52.530;7.320;2022-10-16T11:39:20;2.85;;;0.73;;
11064;SDS011;5585;52.530;7.320;2022-10-16T11:41:47;4.00;;;1.23;;
11064;SDS011;5585;52.530;7.320;2022-10-16T11:44:18;4.07;;;1.10;;
11064;SDS011;5585;52.530;7.320;2022-10-16T11:46:48;3.72;;;1.50;;
11064;SDS011;5585;52.530;7.320;2022-10-16T11:49:16;4.85;;;1.30;;
11064;SDS011;5585;52.530;7.320;2022-10-16T11:51:45;3.78;;;1.00;;
11064;SDS011;5585;52.530;7.320;2022-10-16T11:54:18;3.42;;;1.15;;
11064;SDS011;5585;52.530;7.320;2022-10-16T11:56:48;2.60;;;1.00;;
11064;SDS011;5585;52.530;7.320;2022-10-16T11:59:19;5.70;;;1.38;;
11064;SDS011;5585;52.530;7.320;2022-10-16T12:01:51;2.92;;;1.05;;
11064;SDS011;5585;52.530;7.320;2022-10-16T12:04:23;3.08;;;1.00;;
11064;SDS011;5585;52.530;7.320;2022-10-16T12:06:53;4.47;;;1.17;;
11064;SDS011;5585;52.530;7.320;2022-10-16T12:09:24;5.70;;;1.33;;
11064;SDS011;5585;52.530;7.320;2022-10-16T12:11:51;4.32;;;1.15;;
11064;SDS011;5585;52.530;7.320;2022-10-16T12:14:21;2.55;;;0.98;;
11064;SDS011;5585;52.530;7.320;2022-10-16T12:16:52;7.35;;;1.63;;
11064;SDS011;5585;52.530;7.320;2022-10-16T12:19:19;4.75;;;1.38;;
11064;SDS011;5585;52.530;7.320;2022-10-16T12:21:46;3.65;;;1.88;;
11064;SDS011;5585;52.530;7.320;2022-10-16T12:24:27;4.97;;;1.77;;
11064;SDS011;5585;52.530;7.320;2022-10-16T12:26:56;4.72;;;1.15;;
11064;SDS011;5585;52.530;7.320;2022-10-16T12:29:28;2.90;;;0.95;;
11064;SDS011;5585;52.530;7.320;2022-10-16T12:31:56;3.55;;;1.05;;
11064;SDS011;5585;52.530;7.320;2022-10-16T12:34:24;2.35;;;1.10;;
11064;SDS011;5585;52.530;7.320;2022-10-16T12:36:55;6.00;;;1.50;;
11064;SDS011;5585;52.530;7.320;2022-10-16T12:39:22;5.53;;;1.15;;
11064;SDS011;5585;52.530;7.320;2022-10-16T12:41:59;5.68;;;1.35;;
11064;SDS011;5585;52.530;7.320;2022-10-16T12:44:28;3.95;;;1.00;;
11064;SDS011;5585;52.530;7.320;2022-10-16T12:46:57;6.82;;;1.48;;
11064;SDS011;5585;52.530;7.320;2022-10-16T12:49:29;6.35;;;1.83;;
11064;SDS011;5585;52.530;7.320;2022-10-16T12:51:56;3.78;;;1.20;;
11064;SDS011;5585;52.530;7.320;2022-10-16T12:54:25;2.80;;;1.00;;
11064;SDS011;5585;52.530;7.320;2022-10-16T12:57:07;5.75;;;1.50;;
11064;SDS011;5585;52.530;7.320;2022-10-16T12:59:40;2.63;;;1.20;;
11064;SDS011;5585;52.530;7.320;2022-10-16T13:04:57;5.50;;;1.10;;
11064;SDS011;5585;52.530;7.320;2022-10-16T13:07:31;4.32;;;1.10;;
11064;SDS011;5585;52.530;7.320;2022-10-16T13:10:03;4.55;;;1.17;;
11064;SDS011;5585;52.530;7.320;2022-10-16T13:12:39;4.65;;;1.33;;
11064;SDS011;5585;52.530;7.320;2022-10-16T13:15:14;3.38;;;0.95;;
11064;SDS011;5585;52.530;7.320;2022-10-16T13:17:48;4.07;;;1.00;;
11064;SDS011;5585;52.530;7.320;2022-10-16T13:20:18;3.80;;;1.13;;
11064;SDS011;5585;52.530;7.320;2022-10-16T13:22:49;4.63;;;1.40;;
11064;SDS011;5585;52.530;7.320;2022-10-16T13:25:22;3.40;;;0.88;;
11064;SDS011;5585;52.530;7.320;2022-10-16T13:27:52;3.42;;;1.33;;
11064;SDS011;5585;52.530;7.320;2022-10-16T13:30:25;4.40;;;1.20;;
11064;SDS011;5585;52.530;7.320;2022-10-16T13:32:58;2.47;;;0.95;;
11064;SDS011;5585;52.530;7.320;2022-10-16T13:35:25;4.72;;;1.27;;
11064;SDS011;5585;52.530;7.320;2022-10-16T13:38:02;4.72;;;1.45;;
11064;SDS011;5585;52.530;7.320;2022-10-16T13:40:29;4.47;;;1.45;;
11064;SDS011;5585;52.530;7.320;2022-10-16T13:42:55;3.65;;;1.00;;
11064;SDS011;5585;52.530;7.320;2022-10-16T13:45:22;5.07;;;1.08;;
11064;SDS011;5585;52.530;7.320;2022-10-16T13:48:00;7.47;;;1.20;;
11064;SDS011;5585;52.530;7.320;2022-10-16T13:50:29;3.05;;;1.10;;
11064;SDS011;5585;52.530;7.320;2022-10-16T13:53:03;3.35;;;1.10;;
11064;SDS011;5585;52.530;7.320;2022-10-16T13:55:29;5.20;;;1.35;;
11064;SDS011;5585;52.530;7.320;2022-10-16T13:58:04;5.95;;;1.50;;
11064;SDS011;5585;52.530;7.320;2022-10-16T14:00:31;3.72;;;1.10;;
11064;SDS011;5585;52.530;7.320;2022-10-16T14:03:00;3.85;;;1.30;;
11064;SDS011;5585;52.530;7.320;2022-10-16T14:05:28;3.90;;;1.20;;
11064;SDS011;5585;52.530;7.320;2022-10-16T14:07:54;5.82;;;1.17;;
11064;SDS011;5585;52.530;7.320;2022-10-16T14:10:23;3.00;;;1.00;;
11064;SDS011;5585;52.530;7.320;2022-10-16T14:12:55;4.18;;;1.35;;
11064;SDS011;5585;52.530;7.320;2022-10-16T14:15:22;4.38;;;1.35;;
11064;SDS011;5585;52.530;7.320;2022-10-16T14:17:49;2.95;;;0.98;;
11064;SDS011;5585;52.530;7.320;2022-10-16T14:20:17;3.28;;;1.08;;
11064;SDS011;5585;52.530;7.320;2022-10-16T14:22:44;6.30;;;1.05;;
11064;SDS011;5585;52.530;7.320;2022-10-16T14:25:24;3.83;;;1.10;;
11064;SDS011;5585;52.530;7.320;2022-10-16T14:27:59;3.17;;;1.05;;
11064;SDS011;5585;52.530;7.320;2022-10-16T14:30:27;3.13;;;1.10;;
11064;SDS011;5585;52.530;7.320;2022-10-16T14:32:54;5.00;;;1.35;;
11064;SDS011;5585;52.530;7.320;2022-10-16T14:35:23;3.83;;;1.10;;
11064;SDS011;5585;52.530;7.320;2022-10-16T14:37:51;3.35;;;1.02;;
11064;SDS011;5585;52.530;7.320;2022-10-16T14:40:18;4.47;;;1.48;;
11064;SDS011;5585;52.530;7.320;2022-10-16T14:42:44;4.28;;;1.27;;
11064;SDS011;5585;52.530;7.320;2022-10-16T14:45:11;2.40;;;0.82;;
11064;SDS011;5585;52.530;7.320;2022-10-16T14:47:45;4.20;;;0.90;;
11064;SDS011;5585;52.530;7.320;2022-10-16T14:50:13;4.85;;;1.13;;
11064;SDS011;5585;52.530;7.320;2022-10-16T14:52:41;6.55;;;1.13;;
11064;SDS011;5585;52.530;7.320;2022-10-16T14:55:09;3.75;;;1.08;;
11064;SDS011;5585;52.530;7.320;2022-10-16T14:57:36;3.83;;;1.10;;
11064;SDS011;5585;52.530;7.320;2022-10-16T15:00:03;4.45;;;0.98;;
11064;SDS011;5585;52.530;7.320;2022-10-16T15:02:30;3.92;;;1.10;;
11064;SDS011;5585;52.530;7.320;2022-10-16T15:04:57;3.47;;;1.13;;
11064;SDS011;5585;52.530;7.320;2022-10-16T15:07:24;4.90;;;1.15;;
11064;SDS011;5585;52.530;7.320;2022-10-16T15:09:52;3.45;;;1.10;;
11064;SDS011;5585;52.530;7.320;2022-10-16T15:12:19;4.05;;;1.17;;
11064;SDS011;5585;52.530;7.320;2022-10-16T15:14:46;4.78;;;1.52;;